sensor_id;sensor_type;location;lat;lon;timestamp;temperature;humidity
31675;DHT22;18276;45.520;11.018;2022-09-23T00:01:10;13.20;72.30
31675;DHT22;18276;45.520;11.018;2022-09-23T00:03:39;13.20;72.50
31675;DHT22;18276;45.520;11.018;2022-09-23T00:06:12;13.10;72.40
31675;DHT22;18276;45.520;11.018;2022-09-23T00:08:39;13.10;72.20
31675;DHT22;18276;45.520;11.018;2022-09-23T00:11:10;13.10;72.30
31675;DHT22;18276;45.520;11.018;2022-09-23T00:13:38;13.00;72.40
31675;DHT22;18276;45.520;11.018;2022-09-23T00:16:08;13.00;72.50
31675;DHT22;18276;45.520;11.018;2022-09-23T00:18:35;13.00;72.50
31675;DHT22;18276;45.520;11.018;2022-09-23T00:21:11;13.00;72.50
31675;DHT22;18276;45.520;11.018;2022-09-23T00:23:40;13.00;72.60
31675;DHT22;18276;45.520;11.018;2022-09-23T00:26:12;12.90;72.50
31675;DHT22;18276;45.520;11.018;2022-09-23T00:28:39;12.90;72.40
31675;DHT22;18276;45.520;11.018;2022-09-23T00:31:12;12.90;72.30
31675;DHT22;18276;45.520;11.018;2022-09-23T00:33:40;12.90;72.30
31675;DHT22;18276;45.520;11.018;2022-09-23T00:36:09;12.90;72.20
31675;DHT22;18276;45.520;11.018;2022-09-23T00:38:37;12.90;72.20
31675;DHT22;18276;45.520;11.018;2022-09-23T00:41:05;12.90;72.20
31675;DHT22;18276;45.520;11.018;2022-09-23T00:46:40;12.80;72.20
31675;DHT22;18276;45.520;11.018;2022-09-23T00:49:12;12.80;72.10
31675;DHT22;18276;45.520;11.018;2022-09-23T00:51:47;12.80;72.10
31675;DHT22;18276;45.520;11.018;2022-09-23T00:54:15;12.80;72.10
31675;DHT22;18276;45.520;11.018;2022-09-23T00:56:43;12.80;72.00
31675;DHT22;18276;45.520;11.018;2022-09-23T00:59:11;12.70;71.90
31675;DHT22;18276;45.520;11.018;2022-09-23T01:01:39;12.80;71.80
31675;DHT22;18276;45.520;11.018;2022-09-23T01:04:07;12.70;71.70
31675;DHT22;18276;45.520;11.018;2022-09-23T01:06:34;12.70;71.70
31675;DHT22;18276;45.520;11.018;2022-09-23T01:09:02;12.70;71.70
31675;DHT22;18276;45.520;11.018;2022-09-23T01:11:47;12.70;71.70
31675;DHT22;18276;45.520;11.018;2022-09-23T01:17:14;12.70;71.50
31675;DHT22;18276;45.520;11.018;2022-09-23T01:19:58;12.80;71.40
31675;DHT22;18276;45.520;11.018;2022-09-23T01:22:47;12.70;71.10
31675;DHT22;18276;45.520;11.018;2022-09-23T01:28:05;12.70;70.90
31675;DHT22;18276;45.520;11.018;2022-09-23T01:30:54;12.70;70.90
31675;DHT22;18276;45.520;11.018;2022-09-23T01:39:12;12.60;70.70
31675;DHT22;18276;45.520;11.018;2022-09-23T01:44:41;12.60;70.80
31675;DHT22;18276;45.520;11.018;2022-09-23T01:47:13;12.60;70.90
31675;DHT22;18276;45.520;11.018;2022-09-23T01:49:58;12.50;70.80
31675;DHT22;18276;45.520;11.018;2022-09-23T01:52:32;12.50;70.90
31675;DHT22;18276;45.520;11.018;2022-09-23T01:55:24;12.50;70.90
31675;DHT22;18276;45.520;11.018;2022-09-23T01:57:58;12.50;71.00
31675;DHT22;18276;45.520;11.018;2022-09-23T02:00:29;12.40;70.80
31675;DHT22;18276;45.520;11.018;2022-09-23T02:03:05;12.40;70.80
31675;DHT22;18276;45.520;11.018;2022-09-23T02:05:40;12.40;70.80
31675;DHT22;18276;45.520;11.018;2022-09-23T02:08:15;12.40;70.80
31675;DHT22;18276;45.520;11.018;2022-09-23T02:11:14;12.40;70.80
31675;DHT22;18276;45.520;11.018;2022-09-23T02:19:11;12.30;70.60
31675;DHT22;18276;45.520;11.018;2022-09-23T02:22:04;12.30;70.60
31675;DHT22;18276;45.520;11.018;2022-09-23T02:24:37;12.30;70.50
31675;DHT22;18276;45.520;11.018;2022-09-23T02:27:31;12.20;70.40
31675;DHT22;18276;45.520;11.018;2022-09-23T02:32:53;12.20;70.50
31675;DHT22;18276;45.520;11.018;2022-09-23T02:35:40;12.20;70.50
31675;DHT22;18276;45.520;11.018;2022-09-23T02:41:32;12.20;70.40
31675;DHT22;18276;45.520;11.018;2022-09-23T02:44:00;12.10;70.20
31675;DHT22;18276;45.520;11.018;2022-09-23T02:46:29;12.10;70.10
31675;DHT22;18276;45.520;11.018;2022-09-23T02:49:24;12.20;70.10
31675;DHT22;18276;45.520;11.018;2022-09-23T02:51:53;12.10;70.00
31675;DHT22;18276;45.520;11.018;2022-09-23T02:54:23;12.10;69.90
31675;DHT22;18276;45.520;11.018;2022-09-23T02:56:52;12.10;69.80
31675;DHT22;18276;45.520;11.018;2022-09-23T02:59:21;12.10;69.70
31675;DHT22;18276;45.520;11.018;2022-09-23T03:10:24;12.10;69.60
31675;DHT22;18276;45.520;11.018;2022-09-23T03:13:15;12.10;69.50
31675;DHT22;18276;45.520;11.018;2022-09-23T03:16:00;12.10;69.50
31675;DHT22;18276;45.520;11.018;2022-09-23T03:24:13;12.20;69.30
31675;DHT22;18276;45.520;11.018;2022-09-23T03:26:43;12.30;69.20
31675;DHT22;18276;45.520;11.018;2022-09-23T03:29:13;12.30;69.10
31675;DHT22;18276;45.520;11.018;2022-09-23T03:31:41;12.30;69.00
31675;DHT22;18276;45.520;11.018;2022-09-23T03:34:20;12.40;69.00
31675;DHT22;18276;45.520;11.018;2022-09-23T03:36:54;12.40;68.90
31675;DHT22;18276;45.520;11.018;2022-09-23T03:39:36;12.40;68.80
31675;DHT22;18276;45.520;11.018;2022-09-23T03:44:42;12.40;69.40
31675;DHT22;18276;45.520;11.018;2022-09-23T03:47:11;12.40;68.60
31675;DHT22;18276;45.520;11.018;2022-09-23T03:49:42;12.40;68.70
31675;DHT22;18276;45.520;11.018;2022-09-23T03:52:10;12.40;68.80
31675;DHT22;18276;45.520;11.018;2022-09-23T03:54:37;12.40;68.80
31675;DHT22;18276;45.520;11.018;2022-09-23T03:57:04;12.40;68.90
31675;DHT22;18276;45.520;11.018;2022-09-23T03:59:32;12.40;69.00
31675;DHT22;18276;45.520;11.018;2022-09-23T04:01:59;12.30;69.00
31675;DHT22;18276;45.520;11.018;2022-09-23T04:04:26;12.30;69.10
31675;DHT22;18276;45.520;11.018;2022-09-23T04:06:55;12.40;69.20
31675;DHT22;18276;45.520;11.018;2022-09-23T04:09:22;12.40;69.10
31675;DHT22;18276;45.520;11.018;2022-09-23T04:11:50;12.40;69.90
31675;DHT22;18276;45.520;11.018;2022-09-23T04:14:18;12.40;69.20
31675;DHT22;18276;45.520;11.018;2022-09-23T04:16:46;12.40;69.20
31675;DHT22;18276;45.520;11.018;2022-09-23T04:19:14;12.40;69.20
31675;DHT22;18276;45.520;11.018;2022-09-23T04:21:43;12.40;69.10
31675;DHT22;18276;45.520;11.018;2022-09-23T04:24:11;12.40;69.00
31675;DHT22;18276;45.520;11.018;2022-09-23T04:26:39;12.40;68.90
31675;DHT22;18276;45.520;11.018;2022-09-23T04:29:06;12.40;68.80
31675;DHT22;18276;45.520;11.018;2022-09-23T04:31:33;12.40;68.80
31675;DHT22;18276;45.520;11.018;2022-09-23T04:34:01;12.30;68.70
31675;DHT22;18276;45.520;11.018;2022-09-23T04:36:28;12.30;68.70
31675;DHT22;18276;45.520;11.018;2022-09-23T04:38:56;12.30;68.70
31675;DHT22;18276;45.520;11.018;2022-09-23T04:41:23;12.30;68.70
31675;DHT22;18276;45.520;11.018;2022-09-23T04:43:53;12.30;68.70
31675;DHT22;18276;45.520;11.018;2022-09-23T04:46:20;12.30;68.60
31675;DHT22;18276;45.520;11.018;2022-09-23T04:48:47;12.20;68.60
31675;DHT22;18276;45.520;11.018;2022-09-23T04:51:18;12.20;68.60
31675;DHT22;18276;45.520;11.018;2022-09-23T04:53:47;12.30;68.60
31675;DHT22;18276;45.520;11.018;2022-09-23T04:56:18;12.30;68.50
31675;DHT22;18276;45.520;11.018;2022-09-23T04:58:45;12.30;68.40
31675;DHT22;18276;45.520;11.018;2022-09-23T05:01:24;12.40;68.20
31675;DHT22;18276;45.520;11.018;2022-09-23T05:04:00;12.50;68.10
31675;DHT22;18276;45.520;11.018;2022-09-23T05:06:29;12.50;67.80
31675;DHT22;18276;45.520;11.018;2022-09-23T05:08:57;12.60;67.60
31675;DHT22;18276;45.520;11.018;2022-09-23T05:11:25;12.70;67.30
31675;DHT22;18276;45.520;11.018;2022-09-23T05:13:53;12.80;67.10
31675;DHT22;18276;45.520;11.018;2022-09-23T05:16:21;12.80;66.80
31675;DHT22;18276;45.520;11.018;2022-09-23T05:18:49;12.90;66.70
31675;DHT22;18276;45.520;11.018;2022-09-23T05:21:20;12.90;66.40
31675;DHT22;18276;45.520;11.018;2022-09-23T05:23:51;12.90;66.10
31675;DHT22;18276;45.520;11.018;2022-09-23T05:26:24;13.00;65.90
31675;DHT22;18276;45.520;11.018;2022-09-23T05:28:52;13.00;65.70
31675;DHT22;18276;45.520;11.018;2022-09-23T05:31:21;13.10;65.60
31675;DHT22;18276;45.520;11.018;2022-09-23T05:33:52;13.10;65.30
31675;DHT22;18276;45.520;11.018;2022-09-23T05:36:20;13.20;65.10
31675;DHT22;18276;45.520;11.018;2022-09-23T05:38:49;13.20;64.90
31675;DHT22;18276;45.520;11.018;2022-09-23T05:41:18;13.30;64.90
31675;DHT22;18276;45.520;11.018;2022-09-23T05:43:46;13.30;64.60
31675;DHT22;18276;45.520;11.018;2022-09-23T05:46:15;13.40;64.40
31675;DHT22;18276;45.520;11.018;2022-09-23T05:48:43;13.60;64.20
31675;DHT22;18276;45.520;11.018;2022-09-23T05:51:16;13.70;63.80
31675;DHT22;18276;45.520;11.018;2022-09-23T05:53:44;13.80;63.80
31675;DHT22;18276;45.520;11.018;2022-09-23T05:56:13;14.10;63.70
31675;DHT22;18276;45.520;11.018;2022-09-23T05:58:41;14.30;62.90
31675;DHT22;18276;45.520;11.018;2022-09-23T06:01:10;14.60;62.30
31675;DHT22;18276;45.520;11.018;2022-09-23T06:03:37;14.70;61.60
31675;DHT22;18276;45.520;11.018;2022-09-23T06:06:04;14.70;61.10
31675;DHT22;18276;45.520;11.018;2022-09-23T06:08:31;14.70;60.90
31675;DHT22;18276;45.520;11.018;2022-09-23T06:11:05;14.70;60.90
31675;DHT22;18276;45.520;11.018;2022-09-23T06:13:34;14.80;60.90
31675;DHT22;18276;45.520;11.018;2022-09-23T06:16:07;14.90;61.00
31675;DHT22;18276;45.520;11.018;2022-09-23T06:18:36;15.00;60.70
31675;DHT22;18276;45.520;11.018;2022-09-23T06:21:04;15.30;60.20
31675;DHT22;18276;45.520;11.018;2022-09-23T06:23:31;15.70;59.60
31675;DHT22;18276;45.520;11.018;2022-09-23T06:26:00;16.10;59.00
31675;DHT22;18276;45.520;11.018;2022-09-23T06:28:29;16.80;58.00
31675;DHT22;18276;45.520;11.018;2022-09-23T06:31:03;17.50;56.50
31675;DHT22;18276;45.520;11.018;2022-09-23T06:33:35;18.60;54.90
31675;DHT22;18276;45.520;11.018;2022-09-23T06:36:04;19.60;53.00
31675;DHT22;18276;45.520;11.018;2022-09-23T06:38:32;20.70;51.00
31675;DHT22;18276;45.520;11.018;2022-09-23T06:41:00;21.40;49.10
31675;DHT22;18276;45.520;11.018;2022-09-23T06:43:29;21.80;47.80
31675;DHT22;18276;45.520;11.018;2022-09-23T06:45:58;21.70;47.00
31675;DHT22;18276;45.520;11.018;2022-09-23T06:48:26;21.20;47.40
31675;DHT22;18276;45.520;11.018;2022-09-23T06:50:57;20.50;48.40
31675;DHT22;18276;45.520;11.018;2022-09-23T06:53:25;20.00;49.30
31675;DHT22;18276;45.520;11.018;2022-09-23T06:56:03;19.60;50.00
31675;DHT22;18276;45.520;11.018;2022-09-23T06:58:31;19.50;50.50
31675;DHT22;18276;45.520;11.018;2022-09-23T07:01:04;19.50;50.80
31675;DHT22;18276;45.520;11.018;2022-09-23T07:03:31;19.70;50.80
31675;DHT22;18276;45.520;11.018;2022-09-23T07:05:59;20.50;50.90
31675;DHT22;18276;45.520;11.018;2022-09-23T07:08:28;21.80;49.60
31675;DHT22;18276;45.520;11.018;2022-09-23T07:10:56;23.10;47.50
31675;DHT22;18276;45.520;11.018;2022-09-23T07:13:24;24.50;45.10
31675;DHT22;18276;45.520;11.018;2022-09-23T07:15:53;25.90;42.60
31675;DHT22;18276;45.520;11.018;2022-09-23T07:18:21;27.30;40.20
31675;DHT22;18276;45.520;11.018;2022-09-23T07:20:52;28.50;37.90
31675;DHT22;18276;45.520;11.018;2022-09-23T07:23:20;29.50;36.00
31675;DHT22;18276;45.520;11.018;2022-09-23T07:25:47;30.50;34.10
31675;DHT22;18276;45.520;11.018;2022-09-23T07:28:18;31.40;32.60
31675;DHT22;18276;45.520;11.018;2022-09-23T07:30:45;32.00;31.10
31675;DHT22;18276;45.520;11.018;2022-09-23T07:33:25;32.60;30.20
31675;DHT22;18276;45.520;11.018;2022-09-23T07:35:58;33.20;29.70
31675;DHT22;18276;45.520;11.018;2022-09-23T07:38:25;33.60;29.00
31675;DHT22;18276;45.520;11.018;2022-09-23T07:41:00;34.00;28.30
31675;DHT22;18276;45.520;11.018;2022-09-23T07:43:28;34.40;27.40
31675;DHT22;18276;45.520;11.018;2022-09-23T07:45:59;34.70;27.20
31675;DHT22;18276;45.520;11.018;2022-09-23T07:48:28;34.90;26.40
31675;DHT22;18276;45.520;11.018;2022-09-23T07:51:05;35.10;25.90
31675;DHT22;18276;45.520;11.018;2022-09-23T07:53:33;35.30;24.80
31675;DHT22;18276;45.520;11.018;2022-09-23T07:56:00;35.00;24.30
31675;DHT22;18276;45.520;11.018;2022-09-23T07:58:27;34.80;24.30
31675;DHT22;18276;45.520;11.018;2022-09-23T08:00:54;35.00;23.90
31675;DHT22;18276;45.520;11.018;2022-09-23T08:03:21;34.70;23.70
31675;DHT22;18276;45.520;11.018;2022-09-23T08:05:47;34.50;24.00
31675;DHT22;18276;45.520;11.018;2022-09-23T08:08:14;34.40;23.90
31675;DHT22;18276;45.520;11.018;2022-09-23T08:10:42;33.90;24.00
31675;DHT22;18276;45.520;11.018;2022-09-23T08:13:10;33.80;24.60
31675;DHT22;18276;45.520;11.018;2022-09-23T08:15:37;33.80;24.30
31675;DHT22;18276;45.520;11.018;2022-09-23T08:18:04;33.80;24.40
31675;DHT22;18276;45.520;11.018;2022-09-23T08:20:31;33.90;24.20
31675;DHT22;18276;45.520;11.018;2022-09-23T08:23:25;33.60;24.70
31675;DHT22;18276;45.520;11.018;2022-09-23T08:26:00;33.20;25.40
31675;DHT22;18276;45.520;11.018;2022-09-23T08:28:28;33.30;25.20
31675;DHT22;18276;45.520;11.018;2022-09-23T08:30:55;32.90;25.50
31675;DHT22;18276;45.520;11.018;2022-09-23T08:33:22;32.60;25.70
31675;DHT22;18276;45.520;11.018;2022-09-23T08:35:51;32.50;25.60
31675;DHT22;18276;45.520;11.018;2022-09-23T08:38:19;32.20;26.00
31675;DHT22;18276;45.520;11.018;2022-09-23T08:40:48;32.10;26.40
31675;DHT22;18276;45.520;11.018;2022-09-23T08:43:27;32.20;25.80
31675;DHT22;18276;45.520;11.018;2022-09-23T08:45:59;32.20;25.80
31675;DHT22;18276;45.520;11.018;2022-09-23T08:48:39;32.30;26.00
31675;DHT22;18276;45.520;11.018;2022-09-23T08:51:13;32.30;25.90
31675;DHT22;18276;45.520;11.018;2022-09-23T08:53:41;32.50;25.30
31675;DHT22;18276;45.520;11.018;2022-09-23T08:56:13;32.10;25.40
31675;DHT22;18276;45.520;11.018;2022-09-23T09:01:52;30.40;27.40
31675;DHT22;18276;45.520;11.018;2022-09-23T09:09:59;30.60;26.90
31675;DHT22;18276;45.520;11.018;2022-09-23T09:12:40;30.40;27.30
31675;DHT22;18276;45.520;11.018;2022-09-23T09:18:09;31.00;26.90
31675;DHT22;18276;45.520;11.018;2022-09-23T09:20:53;31.60;26.40
31675;DHT22;18276;45.520;11.018;2022-09-23T09:23:37;32.30;26.30
31675;DHT22;18276;45.520;11.018;2022-09-23T09:26:10;33.00;25.40
31675;DHT22;18276;45.520;11.018;2022-09-23T09:28:51;33.00;25.00
31675;DHT22;18276;45.520;11.018;2022-09-23T09:31:39;33.50;24.90
31675;DHT22;18276;45.520;11.018;2022-09-23T09:37:12;34.80;24.00
31675;DHT22;18276;45.520;11.018;2022-09-23T09:39:40;34.90;23.00
31675;DHT22;18276;45.520;11.018;2022-09-23T09:42:14;34.50;23.40
31675;DHT22;18276;45.520;11.018;2022-09-23T09:50:09;35.20;22.90
31675;DHT22;18276;45.520;11.018;2022-09-23T09:52:36;35.40;22.80
31675;DHT22;18276;45.520;11.018;2022-09-23T09:55:27;36.00;22.50
31675;DHT22;18276;45.520;11.018;2022-09-23T09:58:00;35.90;22.40
31675;DHT22;18276;45.520;11.018;2022-09-23T10:00:39;36.10;22.60
31675;DHT22;18276;45.520;11.018;2022-09-23T10:08:30;37.00;22.20
31675;DHT22;18276;45.520;11.018;2022-09-23T10:13:26;37.40;22.30
31675;DHT22;18276;45.520;11.018;2022-09-23T10:15:53;37.30;22.40
31675;DHT22;18276;45.520;11.018;2022-09-23T10:18:48;37.40;22.50
31675;DHT22;18276;45.520;11.018;2022-09-23T10:21:17;37.70;22.10
31675;DHT22;18276;45.520;11.018;2022-09-23T10:23:56;37.90;21.80
31675;DHT22;18276;45.520;11.018;2022-09-23T10:26:30;37.90;22.00
31675;DHT22;18276;45.520;11.018;2022-09-23T10:29:01;37.80;22.10
31675;DHT22;18276;45.520;11.018;2022-09-23T10:31:31;37.60;21.80
31675;DHT22;18276;45.520;11.018;2022-09-23T10:34:17;37.40;22.00
31675;DHT22;18276;45.520;11.018;2022-09-23T10:37:06;37.60;22.00
31675;DHT22;18276;45.520;11.018;2022-09-23T10:39:37;37.90;21.90
31675;DHT22;18276;45.520;11.018;2022-09-23T10:42:41;37.30;21.70
31675;DHT22;18276;45.520;11.018;2022-09-23T10:45:33;36.90;22.10
31675;DHT22;18276;45.520;11.018;2022-09-23T10:54:01;36.40;22.40
31675;DHT22;18276;45.520;11.018;2022-09-23T11:05:06;37.30;22.80
31675;DHT22;18276;45.520;11.018;2022-09-23T11:24:52;40.80;20.60
31675;DHT22;18276;45.520;11.018;2022-09-23T11:28:03;40.60;21.10
31675;DHT22;18276;45.520;11.018;2022-09-23T11:30:35;40.40;20.90
31675;DHT22;18276;45.520;11.018;2022-09-23T11:33:29;40.50;20.90
31675;DHT22;18276;45.520;11.018;2022-09-23T11:36:09;40.90;20.50
31675;DHT22;18276;45.520;11.018;2022-09-23T11:38:45;41.10;20.20
31675;DHT22;18276;45.520;11.018;2022-09-23T11:41:18;40.60;21.00
31675;DHT22;18276;45.520;11.018;2022-09-23T11:43:49;40.60;21.00
31675;DHT22;18276;45.520;11.018;2022-09-23T11:46:30;39.70;21.10
31675;DHT22;18276;45.520;11.018;2022-09-23T11:51:59;35.90;23.00
31675;DHT22;18276;45.520;11.018;2022-09-23T11:54:42;34.30;24.00
31675;DHT22;18276;45.520;11.018;2022-09-23T11:57:26;32.70;25.60
31675;DHT22;18276;45.520;11.018;2022-09-23T12:05:38;34.30;25.20
31675;DHT22;18276;45.520;11.018;2022-09-23T12:08:36;35.20;24.60
31675;DHT22;18276;45.520;11.018;2022-09-23T12:27:39;31.90;28.10
31675;DHT22;18276;45.520;11.018;2022-09-23T12:30:18;33.10;27.60
31675;DHT22;18276;45.520;11.018;2022-09-23T12:32:45;33.10;26.80
31675;DHT22;18276;45.520;11.018;2022-09-23T12:35:24;32.50;27.00
31675;DHT22;18276;45.520;11.018;2022-09-23T12:37:59;32.20;27.50
31675;DHT22;18276;45.520;11.018;2022-09-23T12:40:35;32.80;27.40
31675;DHT22;18276;45.520;11.018;2022-09-23T12:43:16;33.70;26.70
31675;DHT22;18276;45.520;11.018;2022-09-23T12:45:44;34.10;26.40
31675;DHT22;18276;45.520;11.018;2022-09-23T12:50:48;35.00;25.20
31675;DHT22;18276;45.520;11.018;2022-09-23T12:59:22;34.30;25.80
31675;DHT22;18276;45.520;11.018;2022-09-23T13:01:49;34.30;25.50
31675;DHT22;18276;45.520;11.018;2022-09-23T13:04:30;33.40;26.00
31675;DHT22;18276;45.520;11.018;2022-09-23T13:07:22;31.90;26.70
31675;DHT22;18276;45.520;11.018;2022-09-23T13:10:04;30.10;28.50
31675;DHT22;18276;45.520;11.018;2022-09-23T13:12:34;29.00;29.50
31675;DHT22;18276;45.520;11.018;2022-09-23T13:15:24;29.70;29.80
31675;DHT22;18276;45.520;11.018;2022-09-23T13:17:52;30.60;29.00
31675;DHT22;18276;45.520;11.018;2022-09-23T13:25:28;32.20;28.10
31675;DHT22;18276;45.520;11.018;2022-09-23T13:28:01;33.00;27.10
31675;DHT22;18276;45.520;11.018;2022-09-23T13:30:28;32.80;26.70
31675;DHT22;18276;45.520;11.018;2022-09-23T13:33:11;32.30;26.60
31675;DHT22;18276;45.520;11.018;2022-09-23T13:35:46;31.90;27.00
31675;DHT22;18276;45.520;11.018;2022-09-23T13:38:22;31.00;27.50
31675;DHT22;18276;45.520;11.018;2022-09-23T13:41:01;29.60;28.80
31675;DHT22;18276;45.520;11.018;2022-09-23T13:43:34;29.10;29.80
31675;DHT22;18276;45.520;11.018;2022-09-23T13:46:19;29.10;29.90
31675;DHT22;18276;45.520;11.018;2022-09-23T13:48:50;29.00;29.70
31675;DHT22;18276;45.520;11.018;2022-09-23T13:51:32;29.00;29.80
31675;DHT22;18276;45.520;11.018;2022-09-23T13:54:01;29.30;29.80
31675;DHT22;18276;45.520;11.018;2022-09-23T13:56:30;29.30;29.80
31675;DHT22;18276;45.520;11.018;2022-09-23T13:59:36;29.20;29.70
31675;DHT22;18276;45.520;11.018;2022-09-23T14:04:32;28.70;30.10
31675;DHT22;18276;45.520;11.018;2022-09-23T14:07:00;28.40;30.10
31675;DHT22;18276;45.520;11.018;2022-09-23T14:09:28;27.70;31.00
31675;DHT22;18276;45.520;11.018;2022-09-23T14:11:57;27.10;32.10
31675;DHT22;18276;45.520;11.018;2022-09-23T14:14:26;26.70;32.90
31675;DHT22;18276;45.520;11.018;2022-09-23T14:16:54;26.50;33.20
31675;DHT22;18276;45.520;11.018;2022-09-23T14:19:22;26.40;33.40
31675;DHT22;18276;45.520;11.018;2022-09-23T14:21:53;26.70;33.30
31675;DHT22;18276;45.520;11.018;2022-09-23T14:24:21;27.10;33.20
31675;DHT22;18276;45.520;11.018;2022-09-23T14:26:52;27.40;32.80
31675;DHT22;18276;45.520;11.018;2022-09-23T14:29:29;27.70;32.40
31675;DHT22;18276;45.520;11.018;2022-09-23T14:32:03;27.60;32.20
31675;DHT22;18276;45.520;11.018;2022-09-23T14:40:30;27.60;31.90
31675;DHT22;18276;45.520;11.018;2022-09-23T14:43:05;27.30;32.30
31675;DHT22;18276;45.520;11.018;2022-09-23T14:45:38;26.90;32.70
31675;DHT22;18276;45.520;11.018;2022-09-23T14:48:15;26.40;33.40
31675;DHT22;18276;45.520;11.018;2022-09-23T14:50:49;26.40;34.30
31675;DHT22;18276;45.520;11.018;2022-09-23T14:55:46;26.60;33.90
31675;DHT22;18276;45.520;11.018;2022-09-23T14:58:18;26.10;33.60
31675;DHT22;18276;45.520;11.018;2022-09-23T15:06:41;25.20;35.50
31675;DHT22;18276;45.520;11.018;2022-09-23T15:09:15;25.20;35.50
31675;DHT22;18276;45.520;11.018;2022-09-23T15:11:46;25.20;35.70
31675;DHT22;18276;45.520;11.018;2022-09-23T15:14:13;25.00;35.80
31675;DHT22;18276;45.520;11.018;2022-09-23T15:17:02;25.00;36.10
31675;DHT22;18276;45.520;11.018;2022-09-23T15:19:30;25.00;36.40
31675;DHT22;18276;45.520;11.018;2022-09-23T15:21:57;24.80;36.40
31675;DHT22;18276;45.520;11.018;2022-09-23T15:24:37;24.80;36.60
31675;DHT22;18276;45.520;11.018;2022-09-23T15:27:29;24.80;36.70
31675;DHT22;18276;45.520;11.018;2022-09-23T15:30:17;24.60;37.00
31675;DHT22;18276;45.520;11.018;2022-09-23T15:32:45;24.50;37.30
31675;DHT22;18276;45.520;11.018;2022-09-23T15:35:14;24.40;37.20
31675;DHT22;18276;45.520;11.018;2022-09-23T15:37:43;24.20;37.70
31675;DHT22;18276;45.520;11.018;2022-09-23T15:40:25;24.20;37.70
31675;DHT22;18276;45.520;11.018;2022-09-23T15:42:57;24.10;37.80
31675;DHT22;18276;45.520;11.018;2022-09-23T15:45:36;24.00;38.70
31675;DHT22;18276;45.520;11.018;2022-09-23T15:48:12;23.90;38.60
31675;DHT22;18276;45.520;11.018;2022-09-23T15:50:39;23.90;39.00
31675;DHT22;18276;45.520;11.018;2022-09-23T15:53:18;23.80;39.00
31675;DHT22;18276;45.520;11.018;2022-09-23T15:55:46;23.60;39.20
31675;DHT22;18276;45.520;11.018;2022-09-23T15:58:14;23.30;39.60
31675;DHT22;18276;45.520;11.018;2022-09-23T16:00:41;23.10;40.30
31675;DHT22;18276;45.520;11.018;2022-09-23T16:03:13;22.80;41.00
31675;DHT22;18276;45.520;11.018;2022-09-23T16:05:42;22.70;41.70
31675;DHT22;18276;45.520;11.018;2022-09-23T16:08:12;22.70;42.30
31675;DHT22;18276;45.520;11.018;2022-09-23T16:10:41;22.50;42.50
31675;DHT22;18276;45.520;11.018;2022-09-23T16:13:12;22.40;42.90
31675;DHT22;18276;45.520;11.018;2022-09-23T16:15:40;22.30;43.40
31675;DHT22;18276;45.520;11.018;2022-09-23T16:18:08;22.20;43.90
31675;DHT22;18276;45.520;11.018;2022-09-23T16:20:38;22.10;44.10
31675;DHT22;18276;45.520;11.018;2022-09-23T16:23:23;22.00;44.30
31675;DHT22;18276;45.520;11.018;2022-09-23T16:26:07;21.80;44.80
31675;DHT22;18276;45.520;11.018;2022-09-23T16:28:40;21.70;45.30
31675;DHT22;18276;45.520;11.018;2022-09-23T16:31:08;21.50;45.80
31675;DHT22;18276;45.520;11.018;2022-09-23T16:33:37;21.40;47.30
31675;DHT22;18276;45.520;11.018;2022-09-23T16:36:04;21.30;47.10
31675;DHT22;18276;45.520;11.018;2022-09-23T16:38:35;21.10;47.50
31675;DHT22;18276;45.520;11.018;2022-09-23T16:41:02;21.00;48.00
31675;DHT22;18276;45.520;11.018;2022-09-23T16:43:29;20.90;48.30
31675;DHT22;18276;45.520;11.018;2022-09-23T16:45:58;20.80;48.60
31675;DHT22;18276;45.520;11.018;2022-09-23T16:48:25;20.70;49.10
31675;DHT22;18276;45.520;11.018;2022-09-23T16:50:52;20.60;49.80
31675;DHT22;18276;45.520;11.018;2022-09-23T16:53:21;20.50;50.40
31675;DHT22;18276;45.520;11.018;2022-09-23T16:55:49;20.30;50.80
31675;DHT22;18276;45.520;11.018;2022-09-23T16:58:16;20.20;51.90
31675;DHT22;18276;45.520;11.018;2022-09-23T17:00:43;20.00;51.50
31675;DHT22;18276;45.520;11.018;2022-09-23T17:03:28;19.90;52.00
31675;DHT22;18276;45.520;11.018;2022-09-23T17:06:11;19.70;52.40
31675;DHT22;18276;45.520;11.018;2022-09-23T17:08:41;19.50;53.00
31675;DHT22;18276;45.520;11.018;2022-09-23T17:11:08;19.40;53.30
31675;DHT22;18276;45.520;11.018;2022-09-23T17:13:40;19.30;53.90
31675;DHT22;18276;45.520;11.018;2022-09-23T17:16:09;19.20;54.10
31675;DHT22;18276;45.520;11.018;2022-09-23T17:18:37;19.00;54.20
31675;DHT22;18276;45.520;11.018;2022-09-23T17:21:07;18.90;54.50
31675;DHT22;18276;45.520;11.018;2022-09-23T17:23:34;18.80;54.80
31675;DHT22;18276;45.520;11.018;2022-09-23T17:26:02;18.70;55.20
31675;DHT22;18276;45.520;11.018;2022-09-23T17:28:31;18.60;55.50
31675;DHT22;18276;45.520;11.018;2022-09-23T17:31:02;18.50;55.70
31675;DHT22;18276;45.520;11.018;2022-09-23T17:33:31;18.40;56.00
31675;DHT22;18276;45.520;11.018;2022-09-23T17:35:58;18.40;56.20
31675;DHT22;18276;45.520;11.018;2022-09-23T17:38:26;18.30;56.30
31675;DHT22;18276;45.520;11.018;2022-09-23T17:40:56;18.30;56.60
31675;DHT22;18276;45.520;11.018;2022-09-23T17:43:25;18.20;56.80
31675;DHT22;18276;45.520;11.018;2022-09-23T17:45:53;18.20;56.90
31675;DHT22;18276;45.520;11.018;2022-09-23T17:48:22;18.10;57.00
31675;DHT22;18276;45.520;11.018;2022-09-23T17:50:58;18.00;57.10
31675;DHT22;18276;45.520;11.018;2022-09-23T17:53:32;18.00;57.50
31675;DHT22;18276;45.520;11.018;2022-09-23T17:56:03;17.90;57.50
31675;DHT22;18276;45.520;11.018;2022-09-23T17:58:35;17.80;57.50
31675;DHT22;18276;45.520;11.018;2022-09-23T18:01:06;17.80;57.70
31675;DHT22;18276;45.520;11.018;2022-09-23T18:03:34;17.70;57.80
31675;DHT22;18276;45.520;11.018;2022-09-23T18:08:37;17.60;58.30
31675;DHT22;18276;45.520;11.018;2022-09-23T18:11:21;17.50;58.20
31675;DHT22;18276;45.520;11.018;2022-09-23T18:13:54;17.40;58.50
31675;DHT22;18276;45.520;11.018;2022-09-23T18:16:23;17.30;58.50
31675;DHT22;18276;45.520;11.018;2022-09-23T18:18:55;17.30;58.70
31675;DHT22;18276;45.520;11.018;2022-09-23T18:21:31;17.20;58.90
31675;DHT22;18276;45.520;11.018;2022-09-23T18:23:59;17.20;59.00
31675;DHT22;18276;45.520;11.018;2022-09-23T18:26:47;17.10;59.00
31675;DHT22;18276;45.520;11.018;2022-09-23T18:29:15;17.00;59.20
31675;DHT22;18276;45.520;11.018;2022-09-23T18:31:43;17.00;59.30